createdAt,value
2023-01-20T00:01:30.046Z,11.23
2023-01-20T00:03:39.027Z,11.23
2023-01-20T00:05:53.146Z,11.93
2023-01-20T00:08:01.826Z,12.00
2023-01-20T00:10:11.749Z,11.77
2023-01-20T00:12:20.728Z,11.83
2023-01-20T00:14:31.152Z,11.23
2023-01-20T00:16:39.950Z,10.77
2023-01-20T00:18:48.825Z,11.43
2023-01-20T00:20:57.905Z,10.67
2023-01-20T00:23:06.879Z,11.97
2023-01-20T00:25:16.533Z,10.50
2023-01-20T00:27:25.746Z,10.87
2023-01-20T00:29:36.191Z,11.07
2023-01-20T00:31:45.219Z,11.23
2023-01-20T00:33:55.268Z,10.17
2023-01-20T00:36:04.652Z,10.67
2023-01-20T00:38:13.303Z,11.07
2023-01-20T00:40:21.990Z,9.83
2023-01-20T00:42:30.779Z,10.57
2023-01-20T00:44:41.958Z,11.03
2023-01-20T00:46:50.813Z,9.93
2023-01-20T00:48:59.891Z,10.53
2023-01-20T00:51:09.398Z,10.20
2023-01-20T00:53:18.224Z,9.73
2023-01-20T00:55:26.918Z,9.70
2023-01-20T00:57:36.078Z,10.43
2023-01-20T00:59:46.941Z,9.40
2023-01-20T01:01:55.795Z,9.80
2023-01-20T01:04:05.185Z,9.57
2023-01-20T01:06:15.067Z,10.10
2023-01-20T01:08:24.084Z,9.10
2023-01-20T01:10:33.302Z,8.87
2023-01-20T01:12:42.301Z,9.60
2023-01-20T01:14:52.669Z,8.70
2023-01-20T01:17:01.292Z,9.27
2023-01-20T01:19:10.175Z,9.83
2023-01-20T01:21:19.709Z,9.77
2023-01-20T01:23:28.883Z,8.83
2023-01-20T01:25:39.506Z,9.23
2023-01-20T01:27:48.546Z,8.13
2023-01-20T01:29:59.373Z,8.40
2023-01-20T01:32:08.998Z,8.23
2023-01-20T01:34:17.823Z,7.90
2023-01-20T01:36:26.897Z,7.83
2023-01-20T01:38:35.908Z,7.70
2023-01-20T01:40:50.283Z,8.23
2023-01-20T01:42:59.285Z,8.20
2023-01-20T01:45:23.625Z,7.47
2023-01-20T01:47:32.753Z,8.37
2023-01-20T01:49:41.528Z,8.20
2023-01-20T01:51:51.554Z,8.73
2023-01-20T01:54:02.163Z,7.73
2023-01-20T01:56:11.215Z,7.57
2023-01-20T01:58:22.957Z,7.07
2023-01-20T02:00:33.101Z,8.20
2023-01-20T02:02:43.633Z,7.40
2023-01-20T02:04:52.679Z,7.03
2023-01-20T02:07:05.120Z,7.37
2023-01-20T02:09:16.235Z,7.40
2023-01-20T02:11:25.236Z,8.63
2023-01-20T02:13:34.424Z,7.63
2023-01-20T02:15:50.680Z,7.90
2023-01-20T02:18:07.705Z,7.73
2023-01-20T02:20:34.821Z,7.30
2023-01-20T02:22:48.743Z,7.43
2023-01-20T02:25:08.882Z,7.03
2023-01-20T02:27:24.052Z,7.67
2023-01-20T02:29:59.521Z,6.33
2023-01-20T02:32:18.050Z,7.53
2023-01-20T02:34:29.865Z,7.27
2023-01-20T02:36:42.991Z,7.10
2023-01-20T02:38:58.524Z,6.83
2023-01-20T02:41:10.001Z,7.17
2023-01-20T02:43:21.337Z,5.80
2023-01-20T02:45:34.336Z,6.17
2023-01-20T02:47:51.616Z,5.90
2023-01-20T02:50:04.816Z,6.73
2023-01-20T02:52:15.689Z,6.10
2023-01-20T02:54:26.755Z,6.20
2023-01-20T02:56:37.103Z,5.97
2023-01-20T02:58:49.616Z,6.20
2023-01-20T03:01:01.044Z,6.67
2023-01-20T03:03:13.225Z,5.90
2023-01-20T03:05:23.984Z,5.80
2023-01-20T03:07:33.580Z,5.70
2023-01-20T03:09:45.464Z,5.93
2023-01-20T03:11:56.765Z,5.80
2023-01-20T03:14:08.455Z,4.60
2023-01-20T03:16:18.487Z,5.80
2023-01-20T03:18:30.970Z,5.77
2023-01-20T03:20:40.230Z,6.13
2023-01-20T03:22:48.988Z,5.70
2023-01-20T03:24:58.511Z,5.07
2023-01-20T03:27:07.381Z,5.27
2023-01-20T03:29:18.897Z,4.87
2023-01-20T03:31:29.371Z,4.97
2023-01-20T03:33:40.189Z,5.60
2023-01-20T03:35:49.255Z,5.23
2023-01-20T03:37:58.114Z,5.10
2023-01-20T03:40:07.409Z,4.93
2023-01-20T03:42:19.084Z,4.90
2023-01-20T03:44:34.141Z,5.13
2023-01-20T03:46:45.031Z,4.90
2023-01-20T03:49:00.243Z,4.67
2023-01-20T03:51:12.862Z,4.27
2023-01-20T03:53:30.454Z,4.90
2023-01-20T03:55:44.059Z,4.93
2023-01-20T03:57:55.559Z,4.20
2023-01-20T04:00:05.727Z,3.90
2023-01-20T04:02:14.603Z,3.97
2023-01-20T04:04:25.021Z,3.63
2023-01-20T04:06:34.770Z,4.20
2023-01-20T04:08:46.435Z,2.83
2023-01-20T04:10:55.763Z,3.27
2023-01-20T04:13:05.072Z,3.17
2023-01-20T04:15:14.651Z,3.50
2023-01-20T04:17:23.961Z,3.40
2023-01-20T04:19:34.471Z,3.40
2023-01-20T04:21:46.585Z,3.63
2023-01-20T04:23:57.647Z,3.57
2023-01-20T04:26:06.997Z,3.73
2023-01-20T04:28:15.725Z,4.00
2023-01-20T04:30:24.464Z,3.37
2023-01-20T04:32:33.159Z,3.20
2023-01-20T04:34:44.284Z,3.53
2023-01-20T04:36:53.267Z,3.40
2023-01-20T04:39:02.335Z,3.80
2023-01-20T04:41:11.962Z,3.47
2023-01-20T04:43:20.853Z,3.13
2023-01-20T04:45:29.731Z,3.27
2023-01-20T04:47:38.412Z,3.23
2023-01-20T04:49:48.728Z,3.20
2023-01-20T04:51:57.824Z,3.40
2023-01-20T04:54:07.252Z,3.10
2023-01-20T04:56:16.901Z,3.30
2023-01-20T04:58:25.896Z,3.07
2023-01-20T05:00:34.917Z,3.03
2023-01-20T05:02:43.487Z,3.40
2023-01-20T05:04:53.476Z,3.37
2023-01-20T05:07:02.358Z,2.83
2023-01-20T05:09:11.783Z,3.50
2023-01-20T05:11:20.814Z,3.13
2023-01-20T05:13:29.847Z,3.17
2023-01-20T05:15:38.916Z,3.17
2023-01-20T05:17:47.785Z,3.33
2023-01-20T05:19:58.509Z,5.20
2023-01-20T05:22:07.203Z,4.47
2023-01-20T05:24:16.249Z,6.27
2023-01-20T05:26:25.824Z,7.00
2023-01-20T05:28:34.786Z,4.03
2023-01-20T05:30:43.963Z,3.47
2023-01-20T05:32:53.794Z,3.07
2023-01-20T05:35:04.157Z,2.90
2023-01-20T05:37:13.030Z,3.67
2023-01-20T05:39:22.221Z,3.10
2023-01-20T05:41:31.319Z,3.57
2023-01-20T05:43:40.646Z,3.23
2023-01-20T05:45:49.499Z,3.43
2023-01-20T05:47:59.306Z,4.57
2023-01-20T05:50:10.491Z,4.73
2023-01-20T05:52:19.330Z,3.20
2023-01-20T05:54:28.378Z,2.73
2023-01-20T05:56:37.481Z,4.17
2023-01-20T05:58:46.329Z,4.70
2023-01-20T06:00:55.339Z,3.90
2023-01-20T06:03:04.262Z,3.10
2023-01-20T06:05:14.924Z,3.80
2023-01-20T06:07:24.015Z,4.23
2023-01-20T06:09:33.081Z,3.20
2023-01-20T06:11:42.483Z,3.33
2023-01-20T06:13:51.710Z,3.80
2023-01-20T06:16:00.759Z,3.53
2023-01-20T06:18:13.277Z,3.30
2023-01-20T06:20:23.414Z,2.90
2023-01-20T06:22:32.256Z,4.00
2023-01-20T06:24:41.501Z,4.17
2023-01-20T06:26:52.031Z,4.93
2023-01-20T06:29:01.958Z,4.70
2023-01-20T06:31:11.927Z,4.17
2023-01-20T06:33:20.716Z,5.27
2023-01-20T06:35:30.978Z,4.50
2023-01-20T06:37:40.145Z,4.47
2023-01-20T06:39:49.225Z,7.50
2023-01-20T06:41:59.856Z,7.30
2023-01-20T06:44:08.673Z,6.20
2023-01-20T06:46:18.087Z,5.73
2023-01-20T06:48:27.152Z,6.00
2023-01-20T06:50:39.767Z,14.00
2023-01-20T06:52:48.329Z,9.07
2023-01-20T06:54:57.521Z,7.00
2023-01-20T06:57:06.408Z,7.07
2023-01-20T06:59:15.381Z,10.77
2023-01-20T07:01:25.407Z,7.63
2023-01-20T07:03:34.481Z,4.33
2023-01-20T07:05:45.438Z,4.60
2023-01-20T07:07:54.445Z,6.03
2023-01-20T07:10:03.360Z,8.60
2023-01-20T07:12:11.991Z,8.20
2023-01-20T07:14:20.965Z,6.60
2023-01-20T07:16:30.311Z,6.80
2023-01-20T07:18:39.123Z,6.70
2023-01-20T07:20:49.775Z,8.27
2023-01-20T07:23:01.187Z,8.17
2023-01-20T07:25:10.207Z,8.73
2023-01-20T07:27:18.951Z,8.77
2023-01-20T07:29:29.041Z,8.23
2023-01-20T07:31:37.715Z,8.00
2023-01-20T07:33:46.665Z,7.00
2023-01-20T07:35:57.501Z,5.33
2023-01-20T07:38:06.572Z,4.87
2023-01-20T07:40:15.235Z,5.07
2023-01-20T07:42:23.897Z,6.17
2023-01-20T07:44:34.361Z,6.17
2023-01-20T07:46:42.990Z,6.43
2023-01-20T07:48:52.425Z,7.50
2023-01-20T07:51:05.625Z,7.13
2023-01-20T07:53:14.775Z,6.70
2023-01-20T07:55:25.099Z,4.83
2023-01-20T07:57:34.361Z,4.30
2023-01-20T07:59:43.455Z,4.50
2023-01-20T08:01:52.265Z,4.07
2023-01-20T08:04:01.768Z,4.60
2023-01-20T08:06:13.574Z,4.47
2023-01-20T08:08:22.564Z,4.40
2023-01-20T08:10:31.352Z,5.53
2023-01-20T08:12:42.519Z,8.27
2023-01-20T08:14:51.313Z,5.80
2023-01-20T08:17:01.320Z,6.10
2023-01-20T08:19:09.912Z,6.43
2023-01-20T08:21:21.367Z,6.13
2023-01-20T08:23:30.614Z,5.80
2023-01-20T08:25:39.656Z,5.03
2023-01-20T08:27:50.610Z,5.57
2023-01-20T08:29:59.281Z,5.30
2023-01-20T08:32:08.568Z,6.30
2023-01-20T08:34:19.035Z,7.93
2023-01-20T08:36:30.673Z,6.47
2023-01-20T08:38:40.099Z,7.20
2023-01-20T08:40:49.285Z,6.67
2023-01-20T08:42:58.079Z,7.47
2023-01-20T08:45:09.143Z,7.40
2023-01-20T08:47:18.264Z,7.50
2023-01-20T08:49:27.334Z,7.67
2023-01-20T08:51:37.629Z,9.30
2023-01-20T08:53:47.794Z,8.67
2023-01-20T08:55:57.610Z,8.43
2023-01-20T08:58:06.259Z,11.30
2023-01-20T09:00:15.585Z,11.50
2023-01-20T09:02:24.875Z,7.60
2023-01-20T09:04:33.476Z,7.20
2023-01-20T09:06:45.165Z,7.63
2023-01-20T09:08:55.252Z,7.30
2023-01-20T09:11:04.978Z,7.30
2023-01-20T09:13:14.171Z,7.13
2023-01-20T09:15:25.461Z,6.80
2023-01-20T09:17:34.829Z,7.50
2023-01-20T09:19:43.745Z,6.80
2023-01-20T09:21:54.015Z,7.10
2023-01-20T09:24:02.702Z,7.47
2023-01-20T09:26:12.376Z,7.33
2023-01-20T09:28:22.335Z,7.63
2023-01-20T09:30:31.059Z,7.63
2023-01-20T09:32:39.767Z,7.17
2023-01-20T09:34:48.679Z,8.07
2023-01-20T09:37:20.073Z,8.17
2023-01-20T09:39:46.450Z,7.77
2023-01-20T09:42:12.957Z,7.90
2023-01-20T09:44:29.378Z,8.00
2023-01-20T09:46:45.241Z,5.20
2023-01-20T09:49:16.093Z,7.60
2023-01-20T09:51:45.019Z,4.30
2023-01-20T09:53:59.869Z,3.87
2023-01-20T09:56:13.151Z,3.13
2023-01-20T09:58:27.219Z,6.07
2023-01-20T10:00:36.952Z,6.43
2023-01-20T10:02:46.890Z,7.03
2023-01-20T10:04:59.247Z,2.90
2023-01-20T10:07:11.005Z,2.73
2023-01-20T10:09:26.995Z,3.23
2023-01-20T10:11:38.166Z,4.30
2023-01-20T10:13:51.705Z,7.67
2023-01-20T10:16:02.938Z,8.20
2023-01-20T10:18:15.801Z,7.50
2023-01-20T10:20:29.120Z,7.60
2023-01-20T10:22:39.879Z,7.40
2023-01-20T10:24:55.594Z,8.10
2023-01-20T10:27:04.875Z,7.13
2023-01-20T10:29:16.747Z,6.97
2023-01-20T10:31:27.787Z,6.50
2023-01-20T10:33:39.226Z,7.67
2023-01-20T10:35:49.146Z,6.50
2023-01-20T10:37:59.050Z,7.00
2023-01-20T10:40:17.885Z,6.83
2023-01-20T10:42:28.711Z,6.13
2023-01-20T10:44:37.578Z,6.73
2023-01-20T10:46:57.344Z,6.90
2023-01-20T10:49:15.140Z,6.23
2023-01-20T10:51:26.975Z,6.00
2023-01-20T10:53:44.738Z,6.83
2023-01-20T10:56:03.327Z,7.50
2023-01-20T10:58:23.677Z,6.27
2023-01-20T11:00:34.146Z,13.97
2023-01-20T11:02:44.461Z,5.30
2023-01-20T11:04:55.198Z,4.90
2023-01-20T11:07:08.686Z,6.43
2023-01-20T11:09:23.070Z,6.40
2023-01-20T11:11:33.697Z,7.70
2023-01-20T11:13:42.724Z,7.60
2023-01-20T11:15:53.328Z,6.50
2023-01-20T11:18:17.094Z,6.70
2023-01-20T11:20:25.944Z,6.50
2023-01-20T11:22:36.182Z,5.93
2023-01-20T11:24:46.440Z,6.10
2023-01-20T11:27:04.818Z,5.73
2023-01-20T11:29:28.821Z,6.03
2023-01-20T11:31:39.985Z,7.47
2023-01-20T11:33:59.565Z,6.10
2023-01-20T11:36:09.320Z,6.23
2023-01-20T11:38:29.022Z,5.93
2023-01-20T11:40:37.909Z,6.17
2023-01-20T11:42:49.195Z,6.67
2023-01-20T11:45:15.364Z,6.73
2023-01-20T11:47:29.230Z,6.17
2023-01-20T11:49:38.081Z,6.40
2023-01-20T11:51:49.161Z,6.60
2023-01-20T11:54:08.711Z,6.53
2023-01-20T11:56:19.987Z,5.90
2023-01-20T11:58:34.569Z,6.17
2023-01-20T12:00:44.253Z,6.60
2023-01-20T12:02:58.992Z,6.23
2023-01-20T12:05:13.279Z,6.10
2023-01-20T12:07:24.898Z,6.67
2023-01-20T12:09:37.658Z,5.97
2023-01-20T12:11:49.410Z,6.53
2023-01-20T12:14:23.490Z,6.70
2023-01-20T12:16:34.752Z,6.20
2023-01-20T12:19:01.160Z,6.40
2023-01-20T12:21:17.874Z,5.80
2023-01-20T12:23:32.751Z,7.17
2023-01-20T12:25:45.383Z,6.73
2023-01-20T12:27:56.212Z,6.40
2023-01-20T12:30:06.992Z,6.90
2023-01-20T12:32:18.018Z,7.17
2023-01-20T12:34:29.342Z,7.23
2023-01-20T12:36:57.638Z,7.57
2023-01-20T12:39:14.691Z,7.47
2023-01-20T12:41:32.037Z,9.40
2023-01-20T12:43:50.591Z,9.67
2023-01-20T12:46:08.723Z,9.40
2023-01-20T12:48:32.657Z,9.17
2023-01-20T12:50:50.660Z,8.90
2023-01-20T12:53:06.298Z,8.17
2023-01-20T12:55:24.141Z,8.27
2023-01-20T12:57:39.483Z,8.60
2023-01-20T12:59:52.794Z,7.40
2023-01-20T13:02:07.629Z,8.13
2023-01-20T13:04:34.210Z,7.80
2023-01-20T13:06:51.574Z,8.67
2023-01-20T13:09:08.012Z,7.53
2023-01-20T13:11:20.714Z,8.50
2023-01-20T13:13:56.033Z,7.13
2023-01-20T13:16:09.231Z,6.70
2023-01-20T13:18:23.908Z,7.63
2023-01-20T13:20:33.448Z,7.57
2023-01-20T13:22:43.993Z,6.87
2023-01-20T13:24:54.589Z,7.40
2023-01-20T13:27:04.099Z,6.73
2023-01-20T13:29:22.884Z,7.90
2023-01-20T13:31:44.822Z,7.50
2023-01-20T13:33:53.653Z,8.50
2023-01-20T13:36:04.339Z,8.33
2023-01-20T13:38:21.818Z,9.87
2023-01-20T13:40:49.431Z,11.63
2023-01-20T13:42:58.559Z,10.50
2023-01-20T13:45:25.959Z,10.57
2023-01-20T13:47:49.353Z,8.93
2023-01-20T13:49:58.469Z,7.70
2023-01-20T13:52:07.492Z,8.13
2023-01-20T13:54:35.760Z,6.07
2023-01-20T13:56:46.058Z,5.93
2023-01-20T13:58:55.088Z,6.80
2023-01-20T14:01:05.456Z,6.17
2023-01-20T14:03:20.098Z,6.43
2023-01-20T14:05:30.422Z,5.80
2023-01-20T14:07:39.361Z,6.23
2023-01-20T14:09:53.393Z,5.30
2023-01-20T14:12:03.911Z,5.50
2023-01-20T14:14:20.100Z,6.07
2023-01-20T14:16:29.888Z,6.07
2023-01-20T14:18:38.697Z,5.13
2023-01-20T14:20:58.809Z,5.07
2023-01-20T14:23:31.311Z,8.40
2023-01-20T14:25:40.340Z,9.47
2023-01-20T14:27:51.237Z,9.93
2023-01-20T14:30:02.030Z,9.70
2023-01-20T14:32:22.108Z,10.87
2023-01-20T14:34:33.855Z,9.43
2023-01-20T14:36:43.259Z,9.83
2023-01-20T14:38:58.419Z,7.73
2023-01-20T14:41:07.557Z,7.07
2023-01-20T14:43:19.750Z,7.63
2023-01-20T14:45:30.091Z,7.30
2023-01-20T14:47:39.469Z,8.47
2023-01-20T14:49:49.639Z,8.73
2023-01-20T14:51:58.666Z,9.87
2023-01-20T14:54:25.870Z,10.20
2023-01-20T14:56:34.562Z,10.10
2023-01-20T14:58:48.334Z,10.30
2023-01-20T15:00:58.924Z,10.47
2023-01-20T15:03:11.752Z,11.30
2023-01-20T15:05:28.534Z,10.77
2023-01-20T15:07:38.395Z,11.10
2023-01-20T15:09:53.210Z,11.40
2023-01-20T15:12:20.683Z,11.17
2023-01-20T15:14:34.376Z,20.00
2023-01-20T15:16:50.824Z,16.40
2023-01-20T15:19:18.776Z,17.43
2023-01-20T15:21:31.079Z,16.47
2023-01-20T15:23:41.397Z,17.27
2023-01-20T15:25:51.024Z,16.07
2023-01-20T15:28:00.125Z,15.97
2023-01-20T15:30:19.699Z,14.20
2023-01-20T15:32:29.023Z,18.83
2023-01-20T15:34:38.065Z,19.83
2023-01-20T15:36:47.758Z,19.97
2023-01-20T15:38:57.292Z,29.57
2023-01-20T15:41:05.992Z,22.20
2023-01-20T15:43:17.012Z,26.63
2023-01-20T15:45:27.441Z,20.50
2023-01-20T15:47:36.452Z,19.90
2023-01-20T15:49:45.146Z,19.10
2023-01-20T15:51:54.541Z,18.37
2023-01-20T15:54:03.495Z,16.67
2023-01-20T15:56:16.444Z,16.50
2023-01-20T15:58:27.374Z,16.97
2023-01-20T16:00:38.887Z,15.47
2023-01-20T16:02:47.602Z,14.90
2023-01-20T16:04:56.476Z,15.73
2023-01-20T16:07:05.341Z,16.00
2023-01-20T16:09:20.009Z,14.90
2023-01-20T16:11:28.770Z,15.07
2023-01-20T16:13:37.683Z,17.73
2023-01-20T16:15:47.787Z,17.83
2023-01-20T16:17:57.068Z,21.40
2023-01-20T16:20:06.502Z,23.73
2023-01-20T16:22:15.633Z,22.60
2023-01-20T16:24:24.489Z,16.57
2023-01-20T16:26:34.477Z,16.77
2023-01-20T16:28:43.202Z,16.93
2023-01-20T16:30:54.489Z,18.17
2023-01-20T16:33:03.603Z,19.00
2023-01-20T16:35:12.279Z,17.20
2023-01-20T16:37:21.253Z,19.00
2023-01-20T16:39:29.978Z,19.27
2023-01-20T16:41:39.759Z,21.20
2023-01-20T16:43:48.702Z,22.07
2023-01-20T16:45:59.153Z,18.27
2023-01-20T16:48:09.359Z,17.40
2023-01-20T16:50:18.772Z,17.90
2023-01-20T16:52:27.418Z,18.60
2023-01-20T16:54:36.628Z,18.83
2023-01-20T16:56:45.691Z,21.50
2023-01-20T16:58:55.283Z,22.40
2023-01-20T17:01:12.362Z,21.63
2023-01-20T17:03:21.191Z,19.47
2023-01-20T17:05:30.584Z,21.03
2023-01-20T17:07:41.191Z,20.73
2023-01-20T17:09:50.151Z,21.17
2023-01-20T17:11:59.225Z,24.53
2023-01-20T17:14:09.492Z,25.20
2023-01-20T17:16:20.195Z,20.73
2023-01-20T17:18:29.285Z,25.07
2023-01-20T17:20:38.284Z,22.37
2023-01-20T17:22:47.541Z,47.73
2023-01-20T17:24:56.467Z,43.03
2023-01-20T17:27:05.844Z,46.47
2023-01-20T17:29:15.074Z,52.83
2023-01-20T17:31:25.425Z,49.37
2023-01-20T17:33:34.477Z,53.57
2023-01-20T17:35:43.514Z,50.13
2023-01-20T17:37:53.185Z,51.10
2023-01-20T17:40:01.917Z,49.93
2023-01-20T17:42:10.702Z,43.37
2023-01-20T17:44:20.149Z,38.87
2023-01-20T17:46:31.147Z,35.77
2023-01-20T17:48:40.373Z,33.73
2023-01-20T17:50:49.624Z,31.60
2023-01-20T17:52:58.211Z,28.47
2023-01-20T17:55:07.496Z,29.63
2023-01-20T17:57:16.412Z,21.20
2023-01-20T17:59:26.364Z,24.40
2023-01-20T18:01:37.154Z,28.93
2023-01-20T18:03:46.214Z,27.80
2023-01-20T18:05:55.550Z,26.83
2023-01-20T18:08:04.562Z,25.80
2023-01-20T18:10:13.976Z,24.90
2023-01-20T18:12:22.931Z,28.23
2023-01-20T18:14:31.526Z,29.13
2023-01-20T18:16:43.126Z,36.13
2023-01-20T18:18:52.196Z,38.73
2023-01-20T18:21:10.037Z,40.30
2023-01-20T18:23:19.256Z,37.80
2023-01-20T18:25:27.865Z,34.23
2023-01-20T18:27:37.403Z,31.73
2023-01-20T18:29:46.216Z,31.00
2023-01-20T18:31:57.375Z,30.87
2023-01-20T18:34:07.296Z,31.73
2023-01-20T18:36:18.009Z,29.07
2023-01-20T18:38:27.332Z,32.27
2023-01-20T18:40:36.540Z,30.53
2023-01-20T18:42:45.371Z,30.40
2023-01-20T18:44:54.072Z,30.80
2023-01-20T18:47:04.806Z,30.70
2023-01-20T18:49:14.800Z,30.37
2023-01-20T18:51:24.285Z,28.63
2023-01-20T18:53:33.171Z,28.03
2023-01-20T18:55:42.367Z,28.07
2023-01-20T18:57:51.162Z,28.57
2023-01-20T19:00:00.139Z,35.80
2023-01-20T19:02:13.760Z,44.40
2023-01-20T19:04:22.789Z,44.77
2023-01-20T19:06:32.374Z,35.27
2023-01-20T19:08:42.061Z,36.23
2023-01-20T19:10:51.128Z,31.50
2023-01-20T19:13:00.172Z,29.47
2023-01-20T19:15:09.591Z,29.50
2023-01-20T19:17:19.962Z,26.57
2023-01-20T19:19:28.796Z,26.37
2023-01-20T19:21:37.948Z,26.77
2023-01-20T19:23:50.256Z,23.33
2023-01-20T19:26:02.781Z,24.53
2023-01-20T19:30:55.939Z,21.57
2023-01-20T19:33:08.787Z,21.97
2023-01-20T19:35:17.580Z,20.37
2023-01-20T19:37:26.158Z,21.47
2023-01-20T19:39:35.251Z,20.20
2023-01-20T19:41:44.132Z,19.47
2023-01-20T19:43:57.478Z,20.00
2023-01-20T19:46:07.115Z,22.07
2023-01-20T19:48:17.310Z,22.50
2023-01-20T19:50:26.321Z,21.40
2023-01-20T19:52:35.351Z,21.57
2023-01-20T19:54:44.582Z,30.13
2023-01-20T19:56:53.169Z,24.30
2023-01-20T19:59:02.410Z,23.13
2023-01-20T20:01:12.032Z,21.70
2023-01-20T20:03:22.168Z,23.03
2023-01-20T20:05:32.233Z,32.30
2023-01-20T20:07:41.124Z,30.93
2023-01-20T20:09:50.156Z,29.37
2023-01-20T20:12:05.234Z,29.63
2023-01-20T20:14:14.913Z,28.20
2023-01-20T20:16:23.935Z,29.20
2023-01-20T20:18:34.183Z,29.00
2023-01-20T20:20:44.066Z,25.17
2023-01-20T20:22:53.390Z,26.40
2023-01-20T20:25:02.277Z,24.87
2023-01-20T20:27:11.573Z,32.87
2023-01-20T20:29:21.484Z,34.80
2023-01-20T20:31:30.669Z,34.50
2023-01-20T20:33:41.135Z,39.03
2023-01-20T20:35:49.808Z,43.97
2023-01-20T20:37:58.887Z,55.27
2023-01-20T20:40:08.337Z,32.43
2023-01-20T20:42:17.266Z,30.27
2023-01-20T20:44:26.538Z,29.43
2023-01-20T20:46:35.422Z,27.23
2023-01-20T20:48:45.475Z,27.60
2023-01-20T20:50:54.782Z,19.83
2023-01-20T20:53:03.804Z,20.97
2023-01-20T20:55:12.803Z,21.17
2023-01-20T20:57:22.143Z,19.37
2023-01-20T20:59:30.871Z,18.90
2023-01-20T21:01:40.342Z,16.40
2023-01-20T21:03:51.184Z,15.70
2023-01-20T21:06:00.112Z,16.47
2023-01-20T21:08:09.216Z,15.63
2023-01-20T21:10:18.634Z,20.60
2023-01-20T21:12:27.943Z,35.03
2023-01-20T21:14:36.760Z,30.87
2023-01-20T21:16:46.028Z,35.90
2023-01-20T21:18:57.338Z,38.27
2023-01-20T21:21:11.248Z,33.77
2023-01-20T21:23:20.009Z,27.43
2023-01-20T21:25:28.792Z,23.70
2023-01-20T21:27:38.396Z,25.63
2023-01-20T21:29:47.719Z,25.70
2023-01-20T21:31:57.878Z,25.93
2023-01-20T21:34:08.065Z,25.33
2023-01-20T21:36:17.486Z,22.60
2023-01-20T21:38:26.266Z,22.83
2023-01-20T21:40:35.395Z,18.37
2023-01-20T21:42:43.986Z,21.87
2023-01-20T21:44:51.744Z,21.00
2023-01-20T21:47:01.724Z,19.77
2023-01-20T21:49:29.558Z,20.07
2023-01-20T21:51:55.764Z,19.33
2023-01-20T21:54:04.589Z,18.83
2023-01-20T21:56:18.828Z,18.17
2023-01-20T21:58:27.829Z,22.87
2023-01-20T22:00:37.259Z,20.57
2023-01-20T22:02:46.259Z,21.43
2023-01-20T22:04:56.782Z,21.37
2023-01-20T22:07:05.463Z,22.07
2023-01-20T22:09:14.331Z,34.23
2023-01-20T22:11:23.363Z,29.90
2023-01-20T22:13:32.181Z,29.77
2023-01-20T22:15:41.513Z,22.20
2023-01-20T22:17:50.223Z,22.50
2023-01-20T22:20:00.267Z,25.13
2023-01-20T22:22:09.587Z,23.33
2023-01-20T22:24:18.678Z,25.07
2023-01-20T22:26:27.353Z,24.03
2023-01-20T22:28:38.537Z,32.65
2023-01-20T22:30:47.811Z,32.00
2023-01-20T22:32:56.818Z,21.00
2023-01-20T22:35:07.916Z,23.17
2023-01-20T22:37:16.913Z,24.17
2023-01-20T22:39:26.011Z,23.73
2023-01-20T22:41:34.901Z,26.27
2023-01-20T22:43:44.565Z,25.97
2023-01-20T22:46:00.300Z,27.13
2023-01-20T22:48:09.662Z,24.43
2023-01-20T22:50:21.149Z,27.43
2023-01-20T22:52:29.843Z,24.67
2023-01-20T22:54:39.123Z,24.87
2023-01-20T22:56:48.371Z,24.80
2023-01-20T22:58:58.091Z,23.33
2023-01-20T23:01:06.887Z,19.73
2023-01-20T23:03:15.993Z,19.50
2023-01-20T23:05:26.511Z,19.07
2023-01-20T23:07:37.674Z,18.27
2023-01-20T23:09:46.660Z,20.43
2023-01-20T23:11:55.916Z,22.53
2023-01-20T23:14:04.686Z,23.23
2023-01-20T23:16:15.805Z,23.20
2023-01-20T23:18:25.082Z,19.27
2023-01-20T23:20:35.714Z,21.33
2023-01-20T23:22:44.583Z,19.30
2023-01-20T23:24:53.319Z,21.30
2023-01-20T23:27:02.336Z,20.30
2023-01-20T23:29:11.529Z,17.70
2023-01-20T23:31:21.061Z,17.90
2023-01-20T23:33:30.002Z,17.63
2023-01-20T23:35:40.863Z,17.60
2023-01-20T23:37:50.220Z,20.13
2023-01-20T23:39:59.023Z,20.37
2023-01-20T23:42:08.388Z,19.90
2023-01-20T23:44:17.059Z,19.73
2023-01-20T23:46:26.098Z,16.47
2023-01-20T23:48:35.439Z,17.00
2023-01-20T23:50:47.129Z,17.80
2023-01-20T23:52:55.872Z,17.97
2023-01-20T23:55:04.442Z,17.27
2023-01-20T23:57:13.565Z,11.00
2023-01-20T23:59:22.400Z,12.53
